sensor_id;sensor_type;location;lat;lon;timestamp;temperature;humidity
19258;DHT22;9763;48.780;9.212;2023-02-15T00:03:00;4.80;60.20
19258;DHT22;9763;48.780;9.212;2023-02-15T00:06:24;4.40;59.70
19258;DHT22;9763;48.780;9.212;2023-02-15T00:09:48;4.40;59.90
19258;DHT22;9763;48.780;9.212;2023-02-15T00:13:14;4.30;59.80
19258;DHT22;9763;48.780;9.212;2023-02-15T00:16:38;4.30;59.80
19258;DHT22;9763;48.780;9.212;2023-02-15T00:20:02;4.30;60.00
19258;DHT22;9763;48.780;9.212;2023-02-15T00:23:26;4.30;59.80
19258;DHT22;9763;48.780;9.212;2023-02-15T00:26:50;4.90;60.50
19258;DHT22;9763;48.780;9.212;2023-02-15T00:30:16;4.20;60.00
19258;DHT22;9763;48.780;9.212;2023-02-15T00:33:40;4.20;60.00
19258;DHT22;9763;48.780;9.212;2023-02-15T00:37:04;4.90;60.60
19258;DHT22;9763;48.780;9.212;2023-02-15T00:40:28;4.20;59.90
19258;DHT22;9763;48.780;9.212;2023-02-15T00:43:51;4.10;59.90
19258;DHT22;9763;48.780;9.212;2023-02-15T00:47:17;4.10;60.00
19258;DHT22;9763;48.780;9.212;2023-02-15T00:50:41;4.10;60.00
19258;DHT22;9763;48.780;9.212;2023-02-15T00:54:04;4.00;60.10
19258;DHT22;9763;48.780;9.212;2023-02-15T00:57:28;4.10;60.20
19258;DHT22;9763;48.780;9.212;2023-02-15T01:00:52;4.10;60.10
19258;DHT22;9763;48.780;9.212;2023-02-15T01:04:21;4.10;60.10
19258;DHT22;9763;48.780;9.212;2023-02-15T01:07:45;4.10;60.10
19258;DHT22;9763;48.780;9.212;2023-02-15T01:11:13;4.00;59.90
19258;DHT22;9763;48.780;9.212;2023-02-15T01:14:46;4.00;60.00
19258;DHT22;9763;48.780;9.212;2023-02-15T01:18:11;4.00;59.90
19258;DHT22;9763;48.780;9.212;2023-02-15T01:21:38;4.00;59.90
19258;DHT22;9763;48.780;9.212;2023-02-15T01:25:06;4.30;60.20
19258;DHT22;9763;48.780;9.212;2023-02-15T01:28:30;3.90;60.00
19258;DHT22;9763;48.780;9.212;2023-02-15T01:31:55;3.90;60.80
19258;DHT22;9763;48.780;9.212;2023-02-15T01:35:20;3.90;60.00
19258;DHT22;9763;48.780;9.212;2023-02-15T01:38:45;3.90;60.00
19258;DHT22;9763;48.780;9.212;2023-02-15T01:42:10;4.20;60.30
19258;DHT22;9763;48.780;9.212;2023-02-15T01:45:35;3.80;60.10
19258;DHT22;9763;48.780;9.212;2023-02-15T01:49:02;3.70;60.10
19258;DHT22;9763;48.780;9.212;2023-02-15T01:52:32;3.70;60.20
19258;DHT22;9763;48.780;9.212;2023-02-15T01:56:04;3.70;60.20
19258;DHT22;9763;48.780;9.212;2023-02-15T01:59:33;3.70;60.30
19258;DHT22;9763;48.780;9.212;2023-02-15T02:03:17;3.70;60.40
19258;DHT22;9763;48.780;9.212;2023-02-15T02:06:48;4.20;61.00
19258;DHT22;9763;48.780;9.212;2023-02-15T02:10:19;3.60;60.20
19258;DHT22;9763;48.780;9.212;2023-02-15T02:13:47;3.60;60.20
19258;DHT22;9763;48.780;9.212;2023-02-15T02:17:15;3.60;60.30
19258;DHT22;9763;48.780;9.212;2023-02-15T02:25:12;3.50;60.40
19258;DHT22;9763;48.780;9.212;2023-02-15T02:33:34;3.50;60.20
19258;DHT22;9763;48.780;9.212;2023-02-15T02:37:15;3.40;60.10
19258;DHT22;9763;48.780;9.212;2023-02-15T02:40:52;3.40;60.20
19258;DHT22;9763;48.780;9.212;2023-02-15T02:44:29;3.40;60.40
19258;DHT22;9763;48.780;9.212;2023-02-15T02:48:00;3.40;60.40
19258;DHT22;9763;48.780;9.212;2023-02-15T02:51:29;3.40;60.40
19258;DHT22;9763;48.780;9.212;2023-02-15T02:54:53;3.40;60.10
19258;DHT22;9763;48.780;9.212;2023-02-15T02:58:22;3.40;60.40
19258;DHT22;9763;48.780;9.212;2023-02-15T03:01:56;4.00;61.00
19258;DHT22;9763;48.780;9.212;2023-02-15T03:05:27;3.30;60.30
19258;DHT22;9763;48.780;9.212;2023-02-15T03:08:58;3.30;60.40
19258;DHT22;9763;48.780;9.212;2023-02-15T03:12:28;3.20;60.30
19258;DHT22;9763;48.780;9.212;2023-02-15T03:15:55;3.20;60.40
19258;DHT22;9763;48.780;9.212;2023-02-15T03:19:39;3.20;60.40
19258;DHT22;9763;48.780;9.212;2023-02-15T03:23:09;3.10;60.40
19258;DHT22;9763;48.780;9.212;2023-02-15T03:26:40;3.10;60.40
19258;DHT22;9763;48.780;9.212;2023-02-15T03:30:08;3.10;60.40
19258;DHT22;9763;48.780;9.212;2023-02-15T03:33:36;3.10;60.40
19258;DHT22;9763;48.780;9.212;2023-02-15T03:37:09;3.10;60.50
19258;DHT22;9763;48.780;9.212;2023-02-15T03:40:38;3.00;60.50
19258;DHT22;9763;48.780;9.212;2023-02-15T03:44:27;3.10;60.40
19258;DHT22;9763;48.780;9.212;2023-02-15T03:47:54;3.00;60.50
19258;DHT22;9763;48.780;9.212;2023-02-15T03:51:24;2.90;60.50
19258;DHT22;9763;48.780;9.212;2023-02-15T03:54:57;2.90;60.50
19258;DHT22;9763;48.780;9.212;2023-02-15T03:58:21;2.80;60.40
19258;DHT22;9763;48.780;9.212;2023-02-15T04:02:12;2.80;60.30
19258;DHT22;9763;48.780;9.212;2023-02-15T04:05:44;2.80;60.60
19258;DHT22;9763;48.780;9.212;2023-02-15T04:09:08;2.80;61.30
19258;DHT22;9763;48.780;9.212;2023-02-15T04:12:50;2.80;60.40
19258;DHT22;9763;48.780;9.212;2023-02-15T04:16:13;2.80;60.40
19258;DHT22;9763;48.780;9.212;2023-02-15T04:19:37;3.00;60.60
19258;DHT22;9763;48.780;9.212;2023-02-15T04:23:19;2.70;60.20
19258;DHT22;9763;48.780;9.212;2023-02-15T04:27:00;3.00;60.40
19258;DHT22;9763;48.780;9.212;2023-02-15T04:30:25;2.70;60.50
19258;DHT22;9763;48.780;9.212;2023-02-15T04:33:49;2.60;60.20
19258;DHT22;9763;48.780;9.212;2023-02-15T04:37:15;2.60;60.90
19258;DHT22;9763;48.780;9.212;2023-02-15T04:40:39;2.60;60.10
19258;DHT22;9763;48.780;9.212;2023-02-15T04:44:03;2.60;60.40
19258;DHT22;9763;48.780;9.212;2023-02-15T04:47:27;2.60;60.50
19258;DHT22;9763;48.780;9.212;2023-02-15T04:50:51;2.60;60.30
19258;DHT22;9763;48.780;9.212;2023-02-15T04:54:16;2.50;60.20
19258;DHT22;9763;48.780;9.212;2023-02-15T04:57:40;2.50;60.20
19258;DHT22;9763;48.780;9.212;2023-02-15T05:01:04;2.50;60.30
19258;DHT22;9763;48.780;9.212;2023-02-15T05:04:29;2.50;60.40
19258;DHT22;9763;48.780;9.212;2023-02-15T05:07:53;2.40;60.70
19258;DHT22;9763;48.780;9.212;2023-02-15T05:11:18;2.40;60.50
19258;DHT22;9763;48.780;9.212;2023-02-15T05:14:42;2.40;60.90
19258;DHT22;9763;48.780;9.212;2023-02-15T05:18:06;3.30;61.60
19258;DHT22;9763;48.780;9.212;2023-02-15T05:21:29;2.40;60.90
19258;DHT22;9763;48.780;9.212;2023-02-15T05:24:54;2.40;60.90
19258;DHT22;9763;48.780;9.212;2023-02-15T05:28:37;2.80;61.10
19258;DHT22;9763;48.780;9.212;2023-02-15T05:32:01;2.30;60.90
19258;DHT22;9763;48.780;9.212;2023-02-15T05:35:26;2.20;60.50
19258;DHT22;9763;48.780;9.212;2023-02-15T05:38:50;2.20;60.60
19258;DHT22;9763;48.780;9.212;2023-02-15T05:42:13;2.20;60.60
19258;DHT22;9763;48.780;9.212;2023-02-15T05:45:39;2.20;60.60
19258;DHT22;9763;48.780;9.212;2023-02-15T05:49:03;2.20;60.70
19258;DHT22;9763;48.780;9.212;2023-02-15T05:52:26;2.20;60.60
19258;DHT22;9763;48.780;9.212;2023-02-15T05:55:50;2.30;60.90
19258;DHT22;9763;48.780;9.212;2023-02-15T05:59:14;2.10;60.70
19258;DHT22;9763;48.780;9.212;2023-02-15T06:02:39;2.10;60.80
19258;DHT22;9763;48.780;9.212;2023-02-15T06:06:04;2.10;61.00
19258;DHT22;9763;48.780;9.212;2023-02-15T06:09:28;2.70;61.80
19258;DHT22;9763;48.780;9.212;2023-02-15T06:12:53;2.10;61.10
19258;DHT22;9763;48.780;9.212;2023-02-15T06:16:16;2.10;61.10
19258;DHT22;9763;48.780;9.212;2023-02-15T06:19:42;2.10;61.00
19258;DHT22;9763;48.780;9.212;2023-02-15T06:23:06;2.10;61.10
19258;DHT22;9763;48.780;9.212;2023-02-15T06:26:30;2.10;60.90
19258;DHT22;9763;48.780;9.212;2023-02-15T06:29:53;2.40;61.20
19258;DHT22;9763;48.780;9.212;2023-02-15T06:33:17;2.00;60.80
19258;DHT22;9763;48.780;9.212;2023-02-15T06:36:42;2.00;60.90
19258;DHT22;9763;48.780;9.212;2023-02-15T06:40:07;1.90;60.80
19258;DHT22;9763;48.780;9.212;2023-02-15T06:43:32;1.90;61.20
19258;DHT22;9763;48.780;9.212;2023-02-15T06:46:56;1.90;61.00
19258;DHT22;9763;48.780;9.212;2023-02-15T06:50:20;1.80;60.90
19258;DHT22;9763;48.780;9.212;2023-02-15T06:53:45;1.90;61.20
19258;DHT22;9763;48.780;9.212;2023-02-15T06:57:08;1.80;61.40
19258;DHT22;9763;48.780;9.212;2023-02-15T07:00:32;1.70;61.50
19258;DHT22;9763;48.780;9.212;2023-02-15T07:03:56;1.90;61.80
19258;DHT22;9763;48.780;9.212;2023-02-15T07:07:20;1.90;62.10
19258;DHT22;9763;48.780;9.212;2023-02-15T07:10:46;2.90;64.00
19258;DHT22;9763;48.780;9.212;2023-02-15T07:14:12;2.10;62.30
19258;DHT22;9763;48.780;9.212;2023-02-15T07:17:36;2.20;62.10
19258;DHT22;9763;48.780;9.212;2023-02-15T07:21:00;2.20;62.70
19258;DHT22;9763;48.780;9.212;2023-02-15T07:24:25;2.30;62.50
19258;DHT22;9763;48.780;9.212;2023-02-15T07:27:55;2.30;62.80
19258;DHT22;9763;48.780;9.212;2023-02-15T07:31:20;2.40;63.00
19258;DHT22;9763;48.780;9.212;2023-02-15T07:34:43;2.50;62.90
19258;DHT22;9763;48.780;9.212;2023-02-15T07:38:07;2.50;62.70
19258;DHT22;9763;48.780;9.212;2023-02-15T07:41:31;2.60;62.90
19258;DHT22;9763;48.780;9.212;2023-02-15T07:44:56;2.70;62.90
19258;DHT22;9763;48.780;9.212;2023-02-15T07:48:20;2.80;63.40
19258;DHT22;9763;48.780;9.212;2023-02-15T07:51:46;2.90;63.80
19258;DHT22;9763;48.780;9.212;2023-02-15T07:55:10;3.00;63.80
19258;DHT22;9763;48.780;9.212;2023-02-15T07:58:35;3.20;63.90
19258;DHT22;9763;48.780;9.212;2023-02-15T08:02:16;3.30;63.90
19258;DHT22;9763;48.780;9.212;2023-02-15T08:05:40;3.40;63.80
19258;DHT22;9763;48.780;9.212;2023-02-15T08:09:06;3.50;64.10
19258;DHT22;9763;48.780;9.212;2023-02-15T08:12:31;3.60;64.20
19258;DHT22;9763;48.780;9.212;2023-02-15T08:15:55;3.80;64.20
19258;DHT22;9763;48.780;9.212;2023-02-15T08:19:22;3.90;64.00
19258;DHT22;9763;48.780;9.212;2023-02-15T08:22:47;4.00;64.50
19258;DHT22;9763;48.780;9.212;2023-02-15T08:26:11;4.10;64.10
19258;DHT22;9763;48.780;9.212;2023-02-15T08:29:36;4.10;63.90
19258;DHT22;9763;48.780;9.212;2023-02-15T08:33:02;4.20;63.90
19258;DHT22;9763;48.780;9.212;2023-02-15T08:36:29;4.30;64.10
19258;DHT22;9763;48.780;9.212;2023-02-15T08:39:54;4.40;64.20
19258;DHT22;9763;48.780;9.212;2023-02-15T08:43:18;4.40;64.00
19258;DHT22;9763;48.780;9.212;2023-02-15T08:46:43;4.50;64.30
19258;DHT22;9763;48.780;9.212;2023-02-15T08:50:09;4.80;64.80
19258;DHT22;9763;48.780;9.212;2023-02-15T08:53:34;4.70;64.60
19258;DHT22;9763;48.780;9.212;2023-02-15T08:56:58;4.80;64.40
19258;DHT22;9763;48.780;9.212;2023-02-15T09:00:23;4.80;64.10
19258;DHT22;9763;48.780;9.212;2023-02-15T09:03:49;4.90;64.00
19258;DHT22;9763;48.780;9.212;2023-02-15T09:07:15;4.90;63.80
19258;DHT22;9763;48.780;9.212;2023-02-15T09:10:42;4.90;63.20
19258;DHT22;9763;48.780;9.212;2023-02-15T09:14:08;4.90;63.40
19258;DHT22;9763;48.780;9.212;2023-02-15T09:17:35;4.90;64.10
19258;DHT22;9763;48.780;9.212;2023-02-15T09:21:04;5.00;63.90
19258;DHT22;9763;48.780;9.212;2023-02-15T09:24:32;6.50;65.90
19258;DHT22;9763;48.780;9.212;2023-02-15T09:27:57;5.90;65.20
19258;DHT22;9763;48.780;9.212;2023-02-15T09:31:23;5.20;64.00
19258;DHT22;9763;48.780;9.212;2023-02-15T09:34:48;4.70;63.70
19258;DHT22;9763;48.780;9.212;2023-02-15T09:38:12;5.30;64.20
19258;DHT22;9763;48.780;9.212;2023-02-15T09:42:11;5.40;64.60
19258;DHT22;9763;48.780;9.212;2023-02-15T09:46:16;5.50;65.00
19258;DHT22;9763;48.780;9.212;2023-02-15T09:49:57;5.70;65.40
19258;DHT22;9763;48.780;9.212;2023-02-15T09:53:38;5.80;65.20
19258;DHT22;9763;48.780;9.212;2023-02-15T09:57:22;5.90;64.80
19258;DHT22;9763;48.780;9.212;2023-02-15T10:00:59;7.10;65.20
19258;DHT22;9763;48.780;9.212;2023-02-15T10:04:39;5.90;63.30
19258;DHT22;9763;48.780;9.212;2023-02-15T10:08:36;5.80;63.10
19258;DHT22;9763;48.780;9.212;2023-02-15T10:12:40;5.80;63.10
19258;DHT22;9763;48.780;9.212;2023-02-15T10:16:24;5.70;62.90
19258;DHT22;9763;48.780;9.212;2023-02-15T10:20:02;5.70;63.70
19258;DHT22;9763;48.780;9.212;2023-02-15T10:23:52;6.50;67.80
19258;DHT22;9763;48.780;9.212;2023-02-15T10:27:31;6.50;71.90
19258;DHT22;9763;48.780;9.212;2023-02-15T10:31:07;7.40;74.10
19258;DHT22;9763;48.780;9.212;2023-02-15T10:34:46;8.30;76.90
19258;DHT22;9763;48.780;9.212;2023-02-15T10:38:22;9.50;79.00
19258;DHT22;9763;48.780;9.212;2023-02-15T10:42:02;10.60;78.40
19258;DHT22;9763;48.780;9.212;2023-02-15T10:45:39;11.80;78.60
19258;DHT22;9763;48.780;9.212;2023-02-15T10:49:29;13.00;77.00
19258;DHT22;9763;48.780;9.212;2023-02-15T10:53:35;14.10;74.70
19258;DHT22;9763;48.780;9.212;2023-02-15T10:57:13;15.10;70.20
19258;DHT22;9763;48.780;9.212;2023-02-15T11:00:51;15.70;68.70
19258;DHT22;9763;48.780;9.212;2023-02-15T11:04:39;16.20;68.50
19258;DHT22;9763;48.780;9.212;2023-02-15T11:08:18;16.70;67.90
19258;DHT22;9763;48.780;9.212;2023-02-15T11:11:48;17.30;69.10
19258;DHT22;9763;48.780;9.212;2023-02-15T11:15:18;17.70;64.30
19258;DHT22;9763;48.780;9.212;2023-02-15T11:18:53;18.60;63.80
19258;DHT22;9763;48.780;9.212;2023-02-15T11:22:22;18.00;63.60
19258;DHT22;9763;48.780;9.212;2023-02-15T11:25:54;18.30;64.80
19258;DHT22;9763;48.780;9.212;2023-02-15T11:29:25;18.50;64.50
19258;DHT22;9763;48.780;9.212;2023-02-15T11:32:54;18.80;65.20
19258;DHT22;9763;48.780;9.212;2023-02-15T11:36:24;19.20;65.50
19258;DHT22;9763;48.780;9.212;2023-02-15T11:39:52;19.50;64.20
19258;DHT22;9763;48.780;9.212;2023-02-15T11:43:23;19.80;63.10
19258;DHT22;9763;48.780;9.212;2023-02-15T11:46:52;19.80;60.90
19258;DHT22;9763;48.780;9.212;2023-02-15T11:50:19;19.70;61.00
19258;DHT22;9763;48.780;9.212;2023-02-15T11:53:47;19.50;60.40
19258;DHT22;9763;48.780;9.212;2023-02-15T11:57:16;19.30;60.20
19258;DHT22;9763;48.780;9.212;2023-02-15T12:00:50;18.90;58.90
19258;DHT22;9763;48.780;9.212;2023-02-15T12:04:21;18.40;58.30
19258;DHT22;9763;48.780;9.212;2023-02-15T12:07:51;17.90;57.70
19258;DHT22;9763;48.780;9.212;2023-02-15T12:11:22;17.40;57.60
19258;DHT22;9763;48.780;9.212;2023-02-15T12:14:54;16.80;57.10
19258;DHT22;9763;48.780;9.212;2023-02-15T12:18:30;16.30;57.10
19258;DHT22;9763;48.780;9.212;2023-02-15T12:22:01;15.70;56.80
19258;DHT22;9763;48.780;9.212;2023-02-15T12:25:36;15.30;56.60
19258;DHT22;9763;48.780;9.212;2023-02-15T12:29:11;14.70;56.30
19258;DHT22;9763;48.780;9.212;2023-02-15T12:32:49;14.20;56.60
19258;DHT22;9763;48.780;9.212;2023-02-15T12:36:19;13.80;56.50
19258;DHT22;9763;48.780;9.212;2023-02-15T12:39:52;13.50;57.10
19258;DHT22;9763;48.780;9.212;2023-02-15T12:43:25;13.10;56.90
19258;DHT22;9763;48.780;9.212;2023-02-15T12:46:57;12.90;56.90
19258;DHT22;9763;48.780;9.212;2023-02-15T12:50:24;12.60;57.10
19258;DHT22;9763;48.780;9.212;2023-02-15T12:53:55;12.40;57.10
19258;DHT22;9763;48.780;9.212;2023-02-15T12:57:26;12.20;57.20
19258;DHT22;9763;48.780;9.212;2023-02-15T13:01:11;12.10;57.50
19258;DHT22;9763;48.780;9.212;2023-02-15T13:04:47;12.00;57.70
19258;DHT22;9763;48.780;9.212;2023-02-15T13:08:16;11.90;57.60
19258;DHT22;9763;48.780;9.212;2023-02-15T13:11:44;11.80;57.90
19258;DHT22;9763;48.780;9.212;2023-02-15T13:15:25;11.90;57.90
19258;DHT22;9763;48.780;9.212;2023-02-15T13:18:52;11.80;57.50
19258;DHT22;9763;48.780;9.212;2023-02-15T13:22:20;11.80;57.40
19258;DHT22;9763;48.780;9.212;2023-02-15T13:25:49;11.80;57.30
19258;DHT22;9763;48.780;9.212;2023-02-15T13:29:18;11.50;56.90
19258;DHT22;9763;48.780;9.212;2023-02-15T13:32:49;11.70;57.00
19258;DHT22;9763;48.780;9.212;2023-02-15T13:36:23;11.90;57.10
19258;DHT22;9763;48.780;9.212;2023-02-15T13:39:55;11.80;56.90
19258;DHT22;9763;48.780;9.212;2023-02-15T13:43:39;11.80;56.80
19258;DHT22;9763;48.780;9.212;2023-02-15T13:47:20;11.80;56.70
19258;DHT22;9763;48.780;9.212;2023-02-15T13:50:58;11.80;56.70
19258;DHT22;9763;48.780;9.212;2023-02-15T13:54:47;11.80;56.60
19258;DHT22;9763;48.780;9.212;2023-02-15T13:58:58;11.80;56.60
19258;DHT22;9763;48.780;9.212;2023-02-15T14:02:52;11.80;56.60
19258;DHT22;9763;48.780;9.212;2023-02-15T14:07:09;11.80;56.60
19258;DHT22;9763;48.780;9.212;2023-02-15T14:10:54;11.80;56.50
19258;DHT22;9763;48.780;9.212;2023-02-15T14:14:47;11.80;56.50
19258;DHT22;9763;48.780;9.212;2023-02-15T14:18:27;11.80;56.40
19258;DHT22;9763;48.780;9.212;2023-02-15T14:22:01;11.70;56.30
19258;DHT22;9763;48.780;9.212;2023-02-15T14:25:38;11.70;56.30
19258;DHT22;9763;48.780;9.212;2023-02-15T14:29:19;11.70;56.30
19258;DHT22;9763;48.780;9.212;2023-02-15T14:32:53;11.60;56.20
19258;DHT22;9763;48.780;9.212;2023-02-15T14:36:20;11.60;56.20
19258;DHT22;9763;48.780;9.212;2023-02-15T14:39:51;11.60;56.20
19258;DHT22;9763;48.780;9.212;2023-02-15T14:43:47;11.60;56.20
19258;DHT22;9763;48.780;9.212;2023-02-15T14:47:18;11.60;56.20
19258;DHT22;9763;48.780;9.212;2023-02-15T14:50:48;11.50;56.10
19258;DHT22;9763;48.780;9.212;2023-02-15T14:58:23;11.50;56.00
19258;DHT22;9763;48.780;9.212;2023-02-15T15:01:55;11.50;55.90
19258;DHT22;9763;48.780;9.212;2023-02-15T15:05:24;11.40;56.00
19258;DHT22;9763;48.780;9.212;2023-02-15T15:09:05;11.40;56.00
19258;DHT22;9763;48.780;9.212;2023-02-15T15:12:39;11.40;55.90
19258;DHT22;9763;48.780;9.212;2023-02-15T15:16:45;11.30;55.90
19258;DHT22;9763;48.780;9.212;2023-02-15T15:20:19;11.30;55.90
19258;DHT22;9763;48.780;9.212;2023-02-15T15:24:07;11.20;55.90
19258;DHT22;9763;48.780;9.212;2023-02-15T15:27:49;11.10;55.70
19258;DHT22;9763;48.780;9.212;2023-02-15T15:31:20;11.10;55.90
19258;DHT22;9763;48.780;9.212;2023-02-15T15:35:03;11.00;55.80
19258;DHT22;9763;48.780;9.212;2023-02-15T15:38:48;10.90;55.80
19258;DHT22;9763;48.780;9.212;2023-02-15T15:42:32;10.80;55.80
19258;DHT22;9763;48.780;9.212;2023-02-15T15:46:30;10.90;56.00
19258;DHT22;9763;48.780;9.212;2023-02-15T15:50:13;10.60;55.90
19258;DHT22;9763;48.780;9.212;2023-02-15T15:53:44;10.50;55.80
19258;DHT22;9763;48.780;9.212;2023-02-15T15:57:16;10.40;55.90
19258;DHT22;9763;48.780;9.212;2023-02-15T16:00:47;10.30;56.00
19258;DHT22;9763;48.780;9.212;2023-02-15T16:04:23;10.20;56.10
19258;DHT22;9763;48.780;9.212;2023-02-15T16:07:49;10.20;56.10
19258;DHT22;9763;48.780;9.212;2023-02-15T16:11:19;10.20;56.10
19258;DHT22;9763;48.780;9.212;2023-02-15T16:14:46;10.10;56.00
19258;DHT22;9763;48.780;9.212;2023-02-15T16:18:15;10.10;55.90
19258;DHT22;9763;48.780;9.212;2023-02-15T16:21:42;10.00;55.90
19258;DHT22;9763;48.780;9.212;2023-02-15T16:25:24;9.90;56.60
19258;DHT22;9763;48.780;9.212;2023-02-15T16:28:58;9.90;56.80
19258;DHT22;9763;48.780;9.212;2023-02-15T16:32:24;9.80;56.60
19258;DHT22;9763;48.780;9.212;2023-02-15T16:35:55;9.70;57.30
19258;DHT22;9763;48.780;9.212;2023-02-15T16:39:20;9.60;56.70
19258;DHT22;9763;48.780;9.212;2023-02-15T16:42:44;9.50;56.60
19258;DHT22;9763;48.780;9.212;2023-02-15T16:46:11;9.50;56.70
19258;DHT22;9763;48.780;9.212;2023-02-15T16:49:50;9.40;56.80
19258;DHT22;9763;48.780;9.212;2023-02-15T16:53:19;9.30;56.80
19258;DHT22;9763;48.780;9.212;2023-02-15T16:56:46;9.30;56.90
19258;DHT22;9763;48.780;9.212;2023-02-15T17:00:18;9.20;56.70
19258;DHT22;9763;48.780;9.212;2023-02-15T17:03:49;9.10;56.80
19258;DHT22;9763;48.780;9.212;2023-02-15T17:07:17;9.00;57.40
19258;DHT22;9763;48.780;9.212;2023-02-15T17:10:44;8.90;56.80
19258;DHT22;9763;48.780;9.212;2023-02-15T17:14:29;8.80;56.80
19258;DHT22;9763;48.780;9.212;2023-02-15T17:17:56;8.70;56.90
19258;DHT22;9763;48.780;9.212;2023-02-15T17:21:27;8.70;57.00
19258;DHT22;9763;48.780;9.212;2023-02-15T17:24:59;8.60;57.00
19258;DHT22;9763;48.780;9.212;2023-02-15T17:28:26;8.50;57.00
19258;DHT22;9763;48.780;9.212;2023-02-15T17:31:52;8.60;57.10
19258;DHT22;9763;48.780;9.212;2023-02-15T17:35:20;8.40;57.10
19258;DHT22;9763;48.780;9.212;2023-02-15T17:39:03;8.40;57.10
19258;DHT22;9763;48.780;9.212;2023-02-15T17:42:33;8.30;57.40
19258;DHT22;9763;48.780;9.212;2023-02-15T17:45:57;8.30;57.10
19258;DHT22;9763;48.780;9.212;2023-02-15T17:49:24;8.20;57.10
19258;DHT22;9763;48.780;9.212;2023-02-15T17:52:51;8.20;57.30
19258;DHT22;9763;48.780;9.212;2023-02-15T17:56:17;8.10;57.30
19258;DHT22;9763;48.780;9.212;2023-02-15T17:59:41;8.20;57.30
19258;DHT22;9763;48.780;9.212;2023-02-15T18:03:24;8.00;57.30
19258;DHT22;9763;48.780;9.212;2023-02-15T18:07:12;8.00;58.00
19258;DHT22;9763;48.780;9.212;2023-02-15T18:10:53;8.00;57.30
19258;DHT22;9763;48.780;9.212;2023-02-15T18:14:35;7.90;57.30
19258;DHT22;9763;48.780;9.212;2023-02-15T18:17:59;7.90;57.30
19258;DHT22;9763;48.780;9.212;2023-02-15T18:21:25;7.80;57.50
19258;DHT22;9763;48.780;9.212;2023-02-15T18:24:48;7.80;57.50
19258;DHT22;9763;48.780;9.212;2023-02-15T18:28:13;8.10;57.90
19258;DHT22;9763;48.780;9.212;2023-02-15T18:31:38;7.70;57.60
19258;DHT22;9763;48.780;9.212;2023-02-15T18:35:03;7.70;57.90
19258;DHT22;9763;48.780;9.212;2023-02-15T18:38:27;7.60;57.80
19258;DHT22;9763;48.780;9.212;2023-02-15T18:41:52;7.60;57.80
19258;DHT22;9763;48.780;9.212;2023-02-15T18:45:18;8.00;58.20
19258;DHT22;9763;48.780;9.212;2023-02-15T18:48:46;7.50;58.00
19258;DHT22;9763;48.780;9.212;2023-02-15T18:52:14;7.40;57.80
19258;DHT22;9763;48.780;9.212;2023-02-15T18:55:39;7.40;58.10
19258;DHT22;9763;48.780;9.212;2023-02-15T18:59:03;7.40;58.10
19258;DHT22;9763;48.780;9.212;2023-02-15T19:02:27;7.30;58.00
19258;DHT22;9763;48.780;9.212;2023-02-15T19:05:52;7.20;58.00
19258;DHT22;9763;48.780;9.212;2023-02-15T19:09:19;7.30;58.20
19258;DHT22;9763;48.780;9.212;2023-02-15T19:12:45;7.20;58.20
19258;DHT22;9763;48.780;9.212;2023-02-15T19:16:24;7.20;58.30
19258;DHT22;9763;48.780;9.212;2023-02-15T19:19:51;7.10;58.50
19258;DHT22;9763;48.780;9.212;2023-02-15T19:23:18;7.10;58.30
19258;DHT22;9763;48.780;9.212;2023-02-15T19:26:45;7.10;58.60
19258;DHT22;9763;48.780;9.212;2023-02-15T19:30:13;7.10;58.50
19258;DHT22;9763;48.780;9.212;2023-02-15T19:33:40;7.10;58.60
19258;DHT22;9763;48.780;9.212;2023-02-15T19:37:04;7.50;58.70
19258;DHT22;9763;48.780;9.212;2023-02-15T19:40:33;7.10;58.60
19258;DHT22;9763;48.780;9.212;2023-02-15T19:43:58;7.40;58.90
19258;DHT22;9763;48.780;9.212;2023-02-15T19:47:22;7.00;59.10
19258;DHT22;9763;48.780;9.212;2023-02-15T19:50:47;7.00;58.60
19258;DHT22;9763;48.780;9.212;2023-02-15T19:54:27;7.00;58.70
19258;DHT22;9763;48.780;9.212;2023-02-15T19:57:55;6.90;58.90
19258;DHT22;9763;48.780;9.212;2023-02-15T20:01:20;6.90;59.00
19258;DHT22;9763;48.780;9.212;2023-02-15T20:04:44;6.90;58.80
19258;DHT22;9763;48.780;9.212;2023-02-15T20:08:14;6.80;58.80
19258;DHT22;9763;48.780;9.212;2023-02-15T20:11:39;6.80;59.10
19258;DHT22;9763;48.780;9.212;2023-02-15T20:15:16;6.90;58.90
19258;DHT22;9763;48.780;9.212;2023-02-15T20:18:42;6.80;59.20
19258;DHT22;9763;48.780;9.212;2023-02-15T20:22:18;6.90;59.00
19258;DHT22;9763;48.780;9.212;2023-02-15T20:25:45;6.80;59.10
19258;DHT22;9763;48.780;9.212;2023-02-15T20:29:11;6.80;58.90
19258;DHT22;9763;48.780;9.212;2023-02-15T20:32:37;6.80;59.00
19258;DHT22;9763;48.780;9.212;2023-02-15T20:36:01;6.80;59.00
19258;DHT22;9763;48.780;9.212;2023-02-15T20:39:26;6.70;59.00
19258;DHT22;9763;48.780;9.212;2023-02-15T20:42:50;6.70;59.00
19258;DHT22;9763;48.780;9.212;2023-02-15T20:46:14;6.70;59.00
19258;DHT22;9763;48.780;9.212;2023-02-15T20:49:39;6.70;58.90
19258;DHT22;9763;48.780;9.212;2023-02-15T20:53:04;6.70;59.00
19258;DHT22;9763;48.780;9.212;2023-02-15T20:56:31;6.70;59.00
19258;DHT22;9763;48.780;9.212;2023-02-15T20:59:55;6.70;58.90
19258;DHT22;9763;48.780;9.212;2023-02-15T21:03:21;6.70;58.90
19258;DHT22;9763;48.780;9.212;2023-02-15T21:06:49;6.60;59.00
19258;DHT22;9763;48.780;9.212;2023-02-15T21:10:18;6.60;58.80
19258;DHT22;9763;48.780;9.212;2023-02-15T21:13:44;6.60;59.00
19258;DHT22;9763;48.780;9.212;2023-02-15T21:17:10;6.60;58.90
19258;DHT22;9763;48.780;9.212;2023-02-15T21:20:35;6.50;58.90
19258;DHT22;9763;48.780;9.212;2023-02-15T21:24:03;6.50;59.00
19258;DHT22;9763;48.780;9.212;2023-02-15T21:27:27;6.40;58.90
19258;DHT22;9763;48.780;9.212;2023-02-15T21:30:51;7.10;60.10
19258;DHT22;9763;48.780;9.212;2023-02-15T21:34:16;6.50;59.30
19258;DHT22;9763;48.780;9.212;2023-02-15T21:37:41;6.30;59.20
19258;DHT22;9763;48.780;9.212;2023-02-15T21:41:14;6.20;59.20
19258;DHT22;9763;48.780;9.212;2023-02-15T21:44:55;6.80;59.80
19258;DHT22;9763;48.780;9.212;2023-02-15T21:48:37;6.20;59.20
19258;DHT22;9763;48.780;9.212;2023-02-15T21:52:00;6.20;59.10
19258;DHT22;9763;48.780;9.212;2023-02-15T21:55:34;6.20;59.30
19258;DHT22;9763;48.780;9.212;2023-02-15T21:58:59;6.10;59.30
19258;DHT22;9763;48.780;9.212;2023-02-15T22:02:28;6.10;59.10
19258;DHT22;9763;48.780;9.212;2023-02-15T22:05:53;6.10;59.40
19258;DHT22;9763;48.780;9.212;2023-02-15T22:09:19;6.10;59.30
19258;DHT22;9763;48.780;9.212;2023-02-15T22:12:44;6.10;59.40
19258;DHT22;9763;48.780;9.212;2023-02-15T22:16:14;6.00;59.40
19258;DHT22;9763;48.780;9.212;2023-02-15T22:19:39;6.00;59.60
19258;DHT22;9763;48.780;9.212;2023-02-15T22:23:03;5.90;59.50
19258;DHT22;9763;48.780;9.212;2023-02-15T22:26:27;5.90;59.50
19258;DHT22;9763;48.780;9.212;2023-02-15T22:29:51;4.90;58.70
19258;DHT22;9763;48.780;9.212;2023-02-15T22:33:23;5.90;59.50
19258;DHT22;9763;48.780;9.212;2023-02-15T22:36:49;5.90;59.50
19258;DHT22;9763;48.780;9.212;2023-02-15T22:40:14;5.90;59.30
19258;DHT22;9763;48.780;9.212;2023-02-15T22:43:43;5.90;59.40
19258;DHT22;9763;48.780;9.212;2023-02-15T22:47:15;5.90;59.40
19258;DHT22;9763;48.780;9.212;2023-02-15T22:50:44;5.90;59.40
19258;DHT22;9763;48.780;9.212;2023-02-15T22:54:08;5.80;59.20
19258;DHT22;9763;48.780;9.212;2023-02-15T22:57:32;5.80;59.20
19258;DHT22;9763;48.780;9.212;2023-02-15T23:00:55;5.70;59.10